createdAt,value
2022-11-01T00:01:41.372Z,48.50
2022-11-01T00:04:57.767Z,45.78
2022-11-01T00:08:15.872Z,44.08
2022-11-01T00:11:32.266Z,43.55
2022-11-01T00:14:48.314Z,49.83
2022-11-01T00:18:04.299Z,43.88
2022-11-01T00:21:22.206Z,50.08
2022-11-01T00:24:38.256Z,47.93
2022-11-01T00:27:54.331Z,41.68
2022-11-01T00:31:12.805Z,39.15
2022-11-01T00:34:29.457Z,42.93
2022-11-01T00:37:45.516Z,40.18
2022-11-01T00:41:03.454Z,37.00
2022-11-01T00:44:19.729Z,45.38
2022-11-01T00:47:35.865Z,42.58
2022-11-01T00:50:51.902Z,44.30
2022-11-01T00:54:08.148Z,42.10
2022-11-01T00:57:24.178Z,32.63
2022-11-01T01:00:40.467Z,38.38
2022-11-01T01:03:56.789Z,37.93
2022-11-01T01:07:13.054Z,50.20
2022-11-01T01:10:29.463Z,40.25
2022-11-01T01:13:45.542Z,42.80
2022-11-01T01:17:02.114Z,34.38
2022-11-01T01:20:21.021Z,31.95
2022-11-01T01:23:37.222Z,40.38
2022-11-01T01:26:53.223Z,36.90
2022-11-01T01:30:09.592Z,38.50
2022-11-01T01:33:25.684Z,41.30
2022-11-01T01:36:41.688Z,57.40
2022-11-01T01:39:58.001Z,46.55
2022-11-01T01:43:16.690Z,48.73
2022-11-01T01:46:34.201Z,54.45
2022-11-01T01:49:50.923Z,65.45
2022-11-01T01:53:12.570Z,75.88
2022-11-01T01:56:34.100Z,96.25
2022-11-01T01:59:52.956Z,87.40
2022-11-01T02:03:10.033Z,82.88
2022-11-01T02:06:28.728Z,74.80
2022-11-01T02:09:45.629Z,40.18
2022-11-01T02:13:02.195Z,62.10
2022-11-01T02:16:49.869Z,45.30
2022-11-01T02:21:09.433Z,36.60
2022-11-01T02:25:03.953Z,61.08
2022-11-01T02:28:30.713Z,70.15
2022-11-01T02:32:15.639Z,64.53
2022-11-01T02:35:39.850Z,51.03
2022-11-01T02:39:01.094Z,48.25
2022-11-01T02:42:21.440Z,47.98
2022-11-01T02:45:42.699Z,46.28
2022-11-01T02:49:00.813Z,53.68
2022-11-01T02:52:21.359Z,42.68
2022-11-01T02:55:39.282Z,41.00
2022-11-01T02:58:57.094Z,36.88
2022-11-01T03:02:18.619Z,44.13
2022-11-01T03:05:40.419Z,42.75
2022-11-01T03:09:00.847Z,47.38
2022-11-01T03:12:22.332Z,69.78
2022-11-01T03:15:41.971Z,54.18
2022-11-01T03:19:07.907Z,56.73
2022-11-01T03:22:29.226Z,36.38
2022-11-01T03:25:49.585Z,38.23
2022-11-01T03:29:10.202Z,40.53
2022-11-01T03:32:28.875Z,45.53
2022-11-01T03:35:48.585Z,59.73
2022-11-01T03:39:10.487Z,55.30
2022-11-01T03:42:31.903Z,49.98
2022-11-01T03:45:49.536Z,42.90
2022-11-01T03:49:05.721Z,43.60
2022-11-01T03:52:22.245Z,51.45
2022-11-01T03:55:38.748Z,39.33
2022-11-01T03:58:55.099Z,45.20
2022-11-01T04:05:27.947Z,42.15
2022-11-01T04:08:45.260Z,34.43
2022-11-01T04:12:01.363Z,40.00
2022-11-01T04:15:33.236Z,42.98
2022-11-01T04:19:02.999Z,39.25
2022-11-01T04:22:22.133Z,45.70
2022-11-01T04:25:39.108Z,46.00
2022-11-01T04:29:02.104Z,57.20
2022-11-01T04:32:19.117Z,50.30
2022-11-01T04:35:35.282Z,56.15
2022-11-01T04:38:59.568Z,52.80
2022-11-01T04:42:15.838Z,47.73
2022-11-01T04:45:32.634Z,51.50
2022-11-01T04:48:49.195Z,56.05
2022-11-01T04:52:05.259Z,69.68
2022-11-01T04:55:22.263Z,49.38
2022-11-01T04:58:43.082Z,49.73
2022-11-01T05:01:57.060Z,47.57
2022-11-01T05:05:15.875Z,46.28
2022-11-01T05:08:32.113Z,48.33
2022-11-01T05:11:48.284Z,64.15
2022-11-01T05:15:04.723Z,60.75
2022-11-01T05:18:21.277Z,60.53
2022-11-01T05:21:37.409Z,60.40
2022-11-01T05:24:54.600Z,63.73
2022-11-01T05:28:15.311Z,64.75
2022-11-01T05:31:31.549Z,62.75
2022-11-01T05:34:49.871Z,69.13
2022-11-01T05:38:06.447Z,66.33
2022-11-01T05:41:22.716Z,68.85
2022-11-01T05:44:39.086Z,69.70
2022-11-01T05:47:55.447Z,74.85
2022-11-01T05:51:11.797Z,72.98
2022-11-01T05:54:27.945Z,60.70
2022-11-01T05:57:44.810Z,54.33
2022-11-01T06:01:07.149Z,47.83
2022-11-01T06:04:23.315Z,47.40
2022-11-01T06:07:42.643Z,48.95
2022-11-01T06:10:59.144Z,47.33
2022-11-01T06:14:18.120Z,41.55
2022-11-01T06:17:34.858Z,30.13
2022-11-01T06:20:51.353Z,29.53
2022-11-01T06:24:10.152Z,29.70
2022-11-01T06:27:26.755Z,26.20
2022-11-01T06:30:44.781Z,23.58
2022-11-01T06:34:00.829Z,24.25
2022-11-01T06:37:20.763Z,22.53
2022-11-01T06:40:36.892Z,19.68
2022-11-01T06:43:56.099Z,19.78
2022-11-01T06:47:15.986Z,18.05
2022-11-01T06:50:32.671Z,19.80
2022-11-01T06:53:49.493Z,20.58
2022-11-01T06:57:05.858Z,17.75
2022-11-01T07:00:23.958Z,18.43
2022-11-01T07:03:40.585Z,18.08
2022-11-01T07:06:57.275Z,21.05
2022-11-01T07:10:15.147Z,19.63
2022-11-01T07:13:33.184Z,20.25
2022-11-01T07:16:56.706Z,23.33
2022-11-01T07:20:15.471Z,25.10
2022-11-01T07:23:31.630Z,23.95
2022-11-01T07:26:50.055Z,25.83
2022-11-01T07:30:06.457Z,23.40
2022-11-01T07:33:22.642Z,24.63
2022-11-01T07:36:39.027Z,28.28
2022-11-01T07:39:55.222Z,26.83
2022-11-01T07:43:12.606Z,26.58
2022-11-01T07:46:28.865Z,32.58
2022-11-01T07:49:44.942Z,25.85
2022-11-01T07:53:08.999Z,26.85
2022-11-01T07:56:25.531Z,28.38
2022-11-01T07:59:44.521Z,29.03
2022-11-01T08:03:07.162Z,30.78
2022-11-01T08:06:23.476Z,28.45
2022-11-01T08:09:41.056Z,31.15
2022-11-01T08:13:07.098Z,32.43
2022-11-01T08:16:30.825Z,35.25
2022-11-01T08:20:07.541Z,34.75
2022-11-01T08:23:34.913Z,32.20
2022-11-01T08:26:55.325Z,37.23
2022-11-01T08:30:20.313Z,36.68
2022-11-01T08:33:39.283Z,38.48
2022-11-01T08:37:00.225Z,37.90
2022-11-01T08:40:48.903Z,39.38
2022-11-01T08:44:22.257Z,41.93
2022-11-01T08:47:47.070Z,41.40
2022-11-01T08:51:07.096Z,40.60
2022-11-01T08:54:23.446Z,46.43
2022-11-01T08:57:39.905Z,42.30
2022-11-01T09:00:56.142Z,45.75
2022-11-01T09:04:15.237Z,45.95
2022-11-01T09:07:43.015Z,56.93
2022-11-01T09:11:15.172Z,50.03
2022-11-01T09:14:37.023Z,48.55
2022-11-01T09:18:05.558Z,48.85
2022-11-01T09:21:27.816Z,47.07
2022-11-01T09:24:42.403Z,49.90
2022-11-01T09:28:00.368Z,50.48
2022-11-01T09:31:21.342Z,49.25
2022-11-01T09:34:41.157Z,48.90
2022-11-01T09:38:04.622Z,49.05
2022-11-01T09:41:30.463Z,54.88
2022-11-01T09:44:51.626Z,49.88
2022-11-01T09:48:10.081Z,48.65
2022-11-01T09:51:31.161Z,43.88
2022-11-01T09:54:47.254Z,44.90
2022-11-01T09:58:12.229Z,45.90
2022-11-01T10:01:54.325Z,48.68
2022-11-01T10:05:33.069Z,46.23
2022-11-01T10:09:02.891Z,46.88
2022-11-01T10:12:33.358Z,42.65
2022-11-01T10:16:01.726Z,38.23
2022-11-01T10:19:22.641Z,38.95
2022-11-01T10:22:45.161Z,33.03
2022-11-01T10:26:03.697Z,34.60
2022-11-01T10:29:25.960Z,34.85
2022-11-01T10:32:46.585Z,34.78
2022-11-01T10:36:08.986Z,32.98
2022-11-01T10:39:57.173Z,33.58
2022-11-01T10:42:58.160Z,35.78
2022-11-01T10:46:19.262Z,32.65
2022-11-01T10:50:04.723Z,30.48
2022-11-01T10:53:05.260Z,32.10
2022-11-01T10:56:27.528Z,28.13
2022-11-01T10:59:48.635Z,28.95
2022-11-01T11:03:09.578Z,25.23
2022-11-01T11:06:26.810Z,29.03
2022-11-01T11:09:46.222Z,24.08
2022-11-01T11:13:07.444Z,28.38
2022-11-01T11:16:31.904Z,26.33
2022-11-01T11:19:51.056Z,26.15
2022-11-01T11:23:11.095Z,22.93
2022-11-01T11:29:54.682Z,26.08
2022-11-01T11:33:12.272Z,29.55
2022-11-01T11:36:37.404Z,28.15
2022-11-01T11:40:12.487Z,26.83
2022-11-01T11:43:39.349Z,27.18
2022-11-01T11:47:09.862Z,25.55
2022-11-01T11:50:38.969Z,24.20
2022-11-01T11:54:24.535Z,26.13
2022-11-01T11:58:52.420Z,29.88
2022-11-01T12:02:20.846Z,24.73
2022-11-01T12:05:39.729Z,26.80
2022-11-01T12:09:00.037Z,26.93
2022-11-01T12:12:28.405Z,25.63
2022-11-01T12:15:46.171Z,26.40
2022-11-01T12:19:08.920Z,23.65
2022-11-01T12:22:30.087Z,24.95
2022-11-01T12:25:50.179Z,22.75
2022-11-01T12:29:36.207Z,26.38
2022-11-01T12:33:46.971Z,30.55
2022-11-01T12:37:11.968Z,28.30
2022-11-01T12:40:32.429Z,28.15
2022-11-01T12:44:09.822Z,26.73
2022-11-01T12:47:43.052Z,25.30
2022-11-01T12:51:28.451Z,23.83
2022-11-01T12:55:01.843Z,24.38
2022-11-01T12:58:36.401Z,25.23
2022-11-01T13:02:00.248Z,24.93
2022-11-01T13:05:29.690Z,23.28
2022-11-01T13:08:58.369Z,22.43
2022-11-01T13:12:21.621Z,22.00
2022-11-01T13:15:48.462Z,25.85
2022-11-01T13:19:12.766Z,26.30
2022-11-01T13:22:35.435Z,24.03
2022-11-01T13:25:56.349Z,23.50
2022-11-01T13:29:26.247Z,22.15
2022-11-01T13:33:07.390Z,22.98
2022-11-01T13:39:38.185Z,22.83
2022-11-01T13:43:07.624Z,16.83
2022-11-01T13:47:33.960Z,19.88
2022-11-01T13:54:49.415Z,18.85
2022-11-01T13:58:13.421Z,20.52
2022-11-01T14:01:45.328Z,16.48
2022-11-01T14:05:13.206Z,17.95
2022-11-01T14:08:47.945Z,18.40
2022-11-01T14:12:43.393Z,23.63
2022-11-01T14:16:46.222Z,24.53
2022-11-01T14:20:34.900Z,15.80
2022-11-01T14:24:10.108Z,13.75
2022-11-01T14:27:51.849Z,11.25
2022-11-01T14:31:11.864Z,11.35
2022-11-01T14:34:46.381Z,10.38
2022-11-01T14:38:08.681Z,9.98
2022-11-01T14:41:35.548Z,11.38
2022-11-01T14:44:55.665Z,10.93
2022-11-01T14:48:19.646Z,14.28
2022-11-01T14:51:40.319Z,12.40
2022-11-01T14:55:02.355Z,11.18
2022-11-01T14:58:30.211Z,85.63
2022-11-01T15:01:55.951Z,17.03
2022-11-01T15:05:38.251Z,12.48
2022-11-01T15:08:55.319Z,10.48
2022-11-01T15:12:20.560Z,12.88
2022-11-01T15:15:41.210Z,12.53
2022-11-01T15:19:06.973Z,10.93
2022-11-01T15:22:30.958Z,11.33
2022-11-01T15:26:48.256Z,11.18
2022-11-01T15:30:06.658Z,11.93
2022-11-01T15:33:31.517Z,8.35
2022-11-01T15:36:51.881Z,13.85
2022-11-01T15:40:28.300Z,10.68
2022-11-01T15:43:51.520Z,13.20
2022-11-01T15:47:11.397Z,12.33
2022-11-01T15:50:33.262Z,11.23
2022-11-01T15:53:50.708Z,11.85
2022-11-01T15:57:19.816Z,14.65
2022-11-01T16:00:47.991Z,12.28
2022-11-01T16:04:11.716Z,11.95
2022-11-01T16:07:31.819Z,12.63
2022-11-01T16:10:53.487Z,13.23
2022-11-01T16:14:14.901Z,12.60
2022-11-01T16:17:46.622Z,14.38
2022-11-01T16:21:25.137Z,14.08
2022-11-01T16:24:43.596Z,13.63
2022-11-01T16:28:14.664Z,14.05
2022-11-01T16:31:41.493Z,14.88
2022-11-01T16:34:58.468Z,14.03
2022-11-01T16:38:45.017Z,15.33
2022-11-01T16:42:05.094Z,16.85
2022-11-01T16:45:23.139Z,14.85
2022-11-01T16:48:48.910Z,14.58
2022-11-01T16:52:07.050Z,16.28
2022-11-01T16:55:41.341Z,13.60
2022-11-01T16:59:02.276Z,16.18
2022-11-01T17:02:27.142Z,16.08
2022-11-01T17:05:52.493Z,13.88
2022-11-01T17:09:12.652Z,17.05
2022-11-01T17:12:33.580Z,15.85
2022-11-01T17:16:11.700Z,15.70
2022-11-01T17:19:56.430Z,16.73
2022-11-01T17:23:14.470Z,16.15
2022-11-01T17:26:37.486Z,18.73
2022-11-01T17:30:04.444Z,14.93
2022-11-01T17:33:31.849Z,16.85
2022-11-01T17:36:58.811Z,15.83
2022-11-01T17:40:29.469Z,18.33
2022-11-01T17:43:45.792Z,17.98
2022-11-01T17:47:02.891Z,18.73
2022-11-01T17:50:28.049Z,17.58
2022-11-01T17:53:48.429Z,18.50
2022-11-01T17:58:20.131Z,19.35
2022-11-01T18:01:44.553Z,18.83
2022-11-01T18:05:02.310Z,17.85
2022-11-01T18:08:28.584Z,17.33
2022-11-01T18:11:54.261Z,22.13
2022-11-01T18:15:17.028Z,19.25
2022-11-01T18:18:52.867Z,19.40
2022-11-01T18:22:19.513Z,19.70
2022-11-01T18:25:42.600Z,20.85
2022-11-01T18:29:05.435Z,19.40
2022-11-01T18:32:30.668Z,20.18
2022-11-01T18:35:54.917Z,21.05
2022-11-01T18:39:20.777Z,23.75
2022-11-01T18:42:40.142Z,41.00
2022-11-01T18:46:23.488Z,24.00
2022-11-01T18:49:21.913Z,20.15
2022-11-01T18:52:42.414Z,18.88
2022-11-01T18:56:19.038Z,22.53
2022-11-01T18:59:50.941Z,24.00
2022-11-01T19:03:11.841Z,18.93
2022-11-01T19:06:34.211Z,22.08
2022-11-01T19:10:04.831Z,21.95
2022-11-01T19:13:35.566Z,24.40
2022-11-01T19:17:00.077Z,21.88
2022-11-01T19:20:34.269Z,22.60
2022-11-01T19:23:55.992Z,32.98
2022-11-01T19:27:20.084Z,24.78
2022-11-01T19:30:40.246Z,22.68
2022-11-01T19:33:58.249Z,24.53
2022-11-01T19:37:30.524Z,27.00
2022-11-01T19:40:50.586Z,21.50
2022-11-01T19:44:15.420Z,21.53
2022-11-01T19:47:44.419Z,20.93
2022-11-01T19:51:01.880Z,25.75
2022-11-01T19:54:23.154Z,24.15
2022-11-01T19:57:44.918Z,27.05
2022-11-01T20:01:37.230Z,25.78
2022-11-01T20:04:56.182Z,25.40
2022-11-01T20:08:22.396Z,24.45
2022-11-01T20:11:41.699Z,25.45
2022-11-01T20:14:59.497Z,25.63
2022-11-01T20:18:21.668Z,24.65
2022-11-01T20:21:40.929Z,25.38
2022-11-01T20:28:16.505Z,59.90
2022-11-01T20:31:37.081Z,39.83
2022-11-01T20:34:54.192Z,30.00
2022-11-01T20:38:11.430Z,25.55
2022-11-01T20:41:28.675Z,23.00
2022-11-01T20:44:45.907Z,27.05
2022-11-01T20:48:05.506Z,23.88
2022-11-01T20:51:23.236Z,26.30
2022-11-01T20:54:44.445Z,26.95
2022-11-01T20:58:03.638Z,28.03
2022-11-01T21:01:27.848Z,28.58
2022-11-01T21:04:47.623Z,22.05
2022-11-01T21:08:14.712Z,22.20
2022-11-01T21:11:38.843Z,24.20
2022-11-01T21:14:57.409Z,26.78
2022-11-01T21:18:47.077Z,22.65
2022-11-01T21:22:06.259Z,23.78
2022-11-01T21:28:47.321Z,24.23
2022-11-01T21:32:03.993Z,22.55
2022-11-01T21:35:47.760Z,27.98
2022-11-01T21:39:07.232Z,23.70
2022-11-01T21:45:53.460Z,21.30
2022-11-01T21:49:18.851Z,25.05
2022-11-01T21:52:34.920Z,24.40
2022-11-01T21:55:51.092Z,25.73
2022-11-01T21:59:07.442Z,23.23
2022-11-01T22:02:24.065Z,25.00
2022-11-01T22:05:40.149Z,26.83
2022-11-01T22:08:56.191Z,22.53
2022-11-01T22:12:13.407Z,25.15
2022-11-01T22:15:29.686Z,22.03
2022-11-01T22:18:45.802Z,24.05
2022-11-01T22:22:02.066Z,22.18
2022-11-01T22:25:18.970Z,26.20
2022-11-01T22:28:35.114Z,23.65
2022-11-01T22:31:51.279Z,26.78
2022-11-01T22:35:07.444Z,26.83
2022-11-01T22:38:27.982Z,24.40
2022-11-01T22:41:47.665Z,28.98
2022-11-01T22:45:04.739Z,30.18
2022-11-01T22:48:26.342Z,29.65
2022-11-01T22:51:46.961Z,27.28
2022-11-01T22:55:12.245Z,25.03
2022-11-01T22:58:40.481Z,27.95
2022-11-01T23:01:57.997Z,29.33
2022-11-01T23:05:31.401Z,27.88
2022-11-01T23:08:47.711Z,26.95
2022-11-01T23:12:18.591Z,29.05
2022-11-01T23:15:38.241Z,25.98
2022-11-01T23:18:54.446Z,28.13
2022-11-01T23:22:12.183Z,26.00
2022-11-01T23:25:28.344Z,27.08
2022-11-01T23:28:47.165Z,29.33
2022-11-01T23:32:03.296Z,30.15
2022-11-01T23:35:26.960Z,30.80
2022-11-01T23:38:49.078Z,28.28
2022-11-01T23:42:05.310Z,29.90
2022-11-01T23:45:38.093Z,29.75
2022-11-01T23:48:54.239Z,30.05
2022-11-01T23:52:13.755Z,30.20
2022-11-01T23:55:35.711Z,28.00
2022-11-01T23:58:51.693Z,26.45
